sensor_id;sensor_type;location;lat;lon;timestamp;P1;P2;P0
10689;PMS5003;5394;27.222;78.010;2022-10-18T00:01:32;102.60;77.20;47.60
10689;PMS5003;5394;27.222;78.010;2022-10-18T00:26:35;95.20;74.20;45.20
10689;PMS5003;5394;27.222;78.010;2022-10-18T00:29:09;78.20;60.00;32.00
10689;PMS5003;5394;27.222;78.010;2022-10-18T00:32:36;94.40;74.60;46.00
10689;PMS5003;5394;27.222;78.010;2022-10-18T00:48:06;92.40;72.00;45.00
10689;PMS5003;5394;27.222;78.010;2022-10-18T01:04:26;79.00;60.40;34.00
10689;PMS5003;5394;27.222;78.010;2022-10-18T01:07:00;93.80;73.00;46.40
10689;PMS5003;5394;27.222;78.010;2022-10-18T01:23:06;100.40;75.20;47.80
10689;PMS5003;5394;27.222;78.010;2022-10-18T01:26:38;98.20;76.40;45.40
10689;PMS5003;5394;27.222;78.010;2022-10-18T01:38:40;98.00;74.80;48.80
10689;PMS5003;5394;27.222;78.010;2022-10-18T01:55:29;105.60;80.80;50.40
10689;PMS5003;5394;27.222;78.010;2022-10-18T01:58:07;102.20;81.00;52.00
10689;PMS5003;5394;27.222;78.010;2022-10-18T02:09:20;110.40;89.00;52.40
10689;PMS5003;5394;27.222;78.010;2022-10-18T02:13:55;102.40;77.20;45.20
10689;PMS5003;5394;27.222;78.010;2022-10-18T02:30:39;87.20;68.20;42.20
10689;PMS5003;5394;27.222;78.010;2022-10-18T02:33:17;88.00;68.20;43.20
10689;PMS5003;5394;27.222;78.010;2022-10-18T02:37:06;84.40;66.80;40.80
10689;PMS5003;5394;27.222;78.010;2022-10-18T02:49:25;91.40;70.40;45.20
10689;PMS5003;5394;27.222;78.010;2022-10-18T02:51:57;77.40;62.20;41.00
10689;PMS5003;5394;27.222;78.010;2022-10-18T03:03:24;86.80;65.80;41.00
10689;PMS5003;5394;27.222;78.010;2022-10-18T03:14:38;75.00;62.20;38.60
10689;PMS5003;5394;27.222;78.010;2022-10-18T03:25:07;77.50;61.50;38.50
10689;PMS5003;5394;27.222;78.010;2022-10-18T03:41:13;75.75;61.50;40.50
10689;PMS5003;5394;27.222;78.010;2022-10-18T03:51:08;73.80;58.80;38.40
10689;PMS5003;5394;27.222;78.010;2022-10-18T04:16:42;63.75;52.50;32.50
10689;PMS5003;5394;27.222;78.010;2022-10-18T04:46:44;75.75;61.75;39.25
10689;PMS5003;5394;27.222;78.010;2022-10-18T04:49:15;77.75;62.25;39.00
10689;PMS5003;5394;27.222;78.010;2022-10-18T05:05:11;66.25;54.00;32.75
10689;PMS5003;5394;27.222;78.010;2022-10-18T05:07:43;71.75;57.25;36.50
10689;PMS5003;5394;27.222;78.010;2022-10-18T05:14:58;70.75;57.00;37.50
10689;PMS5003;5394;27.222;78.010;2022-10-18T05:31:09;63.75;51.00;31.75
10689;PMS5003;5394;27.222;78.010;2022-10-18T05:34:59;66.00;53.25;33.00
10689;PMS5003;5394;27.222;78.010;2022-10-18T05:47:05;59.75;49.25;32.00
10689;PMS5003;5394;27.222;78.010;2022-10-18T05:49:37;49.75;42.25;27.00
10689;PMS5003;5394;27.222;78.010;2022-10-18T06:01:05;86.20;68.80;55.20
10689;PMS5003;5394;27.222;78.010;2022-10-18T06:13:06;199.00;193.00;186.20
10689;PMS5003;5394;27.222;78.010;2022-10-18T06:15:38;165.75;162.25;157.50
10689;PMS5003;5394;27.222;78.010;2022-10-18T06:31:49;217.67;213.33;205.00
10689;PMS5003;5394;27.222;78.010;2022-10-18T06:34:20;241.80;235.60;230.00
10689;PMS5003;5394;27.222;78.010;2022-10-18T06:41:36;219.25;216.50;178.50
10689;PMS5003;5394;27.222;78.010;2022-10-18T06:48:53;151.33;146.33;140.33
10689;PMS5003;5394;27.222;78.010;2022-10-18T06:51:25;31.40;27.00;22.80
10689;PMS5003;5394;27.222;78.010;2022-10-18T07:01:20;95.60;75.40;62.60
10689;PMS5003;5394;27.222;78.010;2022-10-18T07:18:23;63.20;52.40;32.40
10689;PMS5003;5394;27.222;78.010;2022-10-18T07:20:55;53.50;41.50;29.75
10689;PMS5003;5394;27.222;78.010;2022-10-18T07:45:56;84.40;69.20;57.20
10689;PMS5003;5394;27.222;78.010;2022-10-18T07:48:29;69.25;55.25;35.00
10689;PMS5003;5394;27.222;78.010;2022-10-18T07:55:44;65.75;53.25;34.25
10689;PMS5003;5394;27.222;78.010;2022-10-18T08:03:01;67.75;54.25;34.25
10689;PMS5003;5394;27.222;78.010;2022-10-18T08:10:16;68.00;55.25;37.00
10689;PMS5003;5394;27.222;78.010;2022-10-18T08:12:48;68.50;54.75;34.00
10689;PMS5003;5394;27.222;78.010;2022-10-18T08:24:37;71.75;53.25;33.00
10689;PMS5003;5394;27.222;78.010;2022-10-18T08:31:52;67.25;55.75;35.50
10689;PMS5003;5394;27.222;78.010;2022-10-18T08:34:24;64.75;52.25;34.50
10689;PMS5003;5394;27.222;78.010;2022-10-18T09:03:46;64.00;52.75;36.25
10689;PMS5003;5394;27.222;78.010;2022-10-18T09:07:55;49.50;44.00;26.00
10689;PMS5003;5394;27.222;78.010;2022-10-18T09:15:11;42.50;34.50;14.75
10689;PMS5003;5394;27.222;78.010;2022-10-18T09:19:34;51.50;45.75;28.00
10689;PMS5003;5394;27.222;78.010;2022-10-18T09:22:25;65.25;51.25;31.75
10689;PMS5003;5394;27.222;78.010;2022-10-18T09:26:38;64.50;53.00;31.75
10689;PMS5003;5394;27.222;78.010;2022-10-18T09:29:39;56.25;48.25;31.00
10689;PMS5003;5394;27.222;78.010;2022-10-18T09:33:42;57.00;46.50;31.00
10689;PMS5003;5394;27.222;78.010;2022-10-18T09:36:21;47.25;40.50;24.00
10689;PMS5003;5394;27.222;78.010;2022-10-18T09:38:57;23.50;18.00;10.00
10689;PMS5003;5394;27.222;78.010;2022-10-18T09:41:33;46.50;40.25;25.50
10689;PMS5003;5394;27.222;78.010;2022-10-18T09:44:13;58.00;47.00;28.25
10689;PMS5003;5394;27.222;78.010;2022-10-18T09:46:51;56.25;46.25;30.25
10689;PMS5003;5394;27.222;78.010;2022-10-18T09:49:29;52.25;44.00;28.50
10689;PMS5003;5394;27.222;78.010;2022-10-18T09:52:10;48.00;42.25;27.50
10689;PMS5003;5394;27.222;78.010;2022-10-18T09:54:48;49.50;41.00;26.50
10689;PMS5003;5394;27.222;78.010;2022-10-18T09:57:26;45.75;42.00;26.75
10689;PMS5003;5394;27.222;78.010;2022-10-18T10:00:02;38.50;32.75;13.00
10689;PMS5003;5394;27.222;78.010;2022-10-18T10:02:36;55.00;46.00;30.00
10689;PMS5003;5394;27.222;78.010;2022-10-18T10:05:13;28.25;22.50;5.50
10689;PMS5003;5394;27.222;78.010;2022-10-18T10:07:46;53.75;46.00;29.25
10689;PMS5003;5394;27.222;78.010;2022-10-18T10:10:19;51.25;43.25;28.75
10689;PMS5003;5394;27.222;78.010;2022-10-18T10:13:01;57.75;45.75;29.00
10689;PMS5003;5394;27.222;78.010;2022-10-18T10:15:36;53.25;45.00;30.00
10689;PMS5003;5394;27.222;78.010;2022-10-18T10:18:16;56.50;42.50;29.00
10689;PMS5003;5394;27.222;78.010;2022-10-18T10:20:52;38.25;36.75;26.00
10689;PMS5003;5394;27.222;78.010;2022-10-18T10:23:27;46.50;42.50;28.25
10689;PMS5003;5394;27.222;78.010;2022-10-18T10:26:01;45.25;41.50;29.75
10689;PMS5003;5394;27.222;78.010;2022-10-18T10:28:40;53.50;42.25;28.75
10689;PMS5003;5394;27.222;78.010;2022-10-18T10:31:20;53.75;46.50;29.00
10689;PMS5003;5394;27.222;78.010;2022-10-18T10:33:59;46.50;42.00;26.75
10689;PMS5003;5394;27.222;78.010;2022-10-18T10:36:34;44.40;39.00;26.80
10689;PMS5003;5394;27.222;78.010;2022-10-18T10:39:18;48.00;40.75;25.25
10689;PMS5003;5394;27.222;78.010;2022-10-18T10:41:51;25.25;20.75;6.25
10689;PMS5003;5394;27.222;78.010;2022-10-18T10:44:25;44.40;38.80;26.00
10689;PMS5003;5394;27.222;78.010;2022-10-18T10:47:01;60.00;50.00;36.00
10689;PMS5003;5394;27.222;78.010;2022-10-18T10:49:42;35.00;31.00;18.75
10689;PMS5003;5394;27.222;78.010;2022-10-18T10:52:20;53.25;42.75;29.00
10689;PMS5003;5394;27.222;78.010;2022-10-18T10:54:55;46.50;37.25;22.75
10689;PMS5003;5394;27.222;78.010;2022-10-18T10:57:50;44.00;40.25;29.00
10689;PMS5003;5394;27.222;78.010;2022-10-18T11:00:37;47.60;40.20;27.60
10689;PMS5003;5394;27.222;78.010;2022-10-18T11:03:14;42.80;35.60;21.60
10689;PMS5003;5394;27.222;78.010;2022-10-18T11:05:56;40.80;37.60;26.00
10689;PMS5003;5394;27.222;78.010;2022-10-18T11:08:34;42.20;39.00;26.00
10689;PMS5003;5394;27.222;78.010;2022-10-18T11:11:17;42.60;39.60;24.60
10689;PMS5003;5394;27.222;78.010;2022-10-18T11:13:55;45.40;41.00;27.00
10689;PMS5003;5394;27.222;78.010;2022-10-18T11:16:55;37.40;35.20;20.20
10689;PMS5003;5394;27.222;78.010;2022-10-18T11:19:37;46.20;37.80;24.00
10689;PMS5003;5394;27.222;78.010;2022-10-18T11:22:19;36.50;31.25;14.00
10689;PMS5003;5394;27.222;78.010;2022-10-18T11:24:57;30.20;28.20;15.80
10689;PMS5003;5394;27.222;78.010;2022-10-18T11:27:29;42.40;38.80;24.20
10689;PMS5003;5394;27.222;78.010;2022-10-18T11:30:14;39.20;36.80;25.00
10689;PMS5003;5394;27.222;78.010;2022-10-18T11:33:02;46.00;39.00;25.00
10689;PMS5003;5394;27.222;78.010;2022-10-18T11:36:06;36.80;31.80;21.60
10689;PMS5003;5394;27.222;78.010;2022-10-18T11:38:46;37.40;35.20;24.80
10689;PMS5003;5394;27.222;78.010;2022-10-18T11:41:31;31.20;29.00;18.00
10689;PMS5003;5394;27.222;78.010;2022-10-18T11:44:11;29.40;27.60;15.60
10689;PMS5003;5394;27.222;78.010;2022-10-18T11:46:54;36.60;35.00;22.20
10689;PMS5003;5394;27.222;78.010;2022-10-18T11:52:36;45.00;39.00;25.00
10689;PMS5003;5394;27.222;78.010;2022-10-18T11:58:26;45.00;41.50;26.75
10689;PMS5003;5394;27.222;78.010;2022-10-18T12:01:19;39.20;35.40;23.60
10689;PMS5003;5394;27.222;78.010;2022-10-18T12:04:00;49.60;43.60;27.60
10689;PMS5003;5394;27.222;78.010;2022-10-18T12:06:39;46.00;40.60;26.20
10689;PMS5003;5394;27.222;78.010;2022-10-18T12:09:16;51.25;40.75;25.00
10689;PMS5003;5394;27.222;78.010;2022-10-18T12:11:55;41.80;37.40;21.80
10689;PMS5003;5394;27.222;78.010;2022-10-18T12:14:34;41.75;39.00;25.25
10689;PMS5003;5394;27.222;78.010;2022-10-18T12:17:11;38.75;35.00;23.75
10689;PMS5003;5394;27.222;78.010;2022-10-18T12:20:13;34.00;31.50;18.25
10689;PMS5003;5394;27.222;78.010;2022-10-18T12:22:52;47.50;42.50;28.00
10689;PMS5003;5394;27.222;78.010;2022-10-18T12:25:32;46.20;39.00;23.60
10689;PMS5003;5394;27.222;78.010;2022-10-18T12:28:07;49.50;42.25;26.75
10689;PMS5003;5394;27.222;78.010;2022-10-18T12:30:55;46.25;40.50;26.75
10689;PMS5003;5394;27.222;78.010;2022-10-18T12:33:36;40.25;38.00;22.50
10689;PMS5003;5394;27.222;78.010;2022-10-18T12:36:17;42.60;37.00;25.60
10689;PMS5003;5394;27.222;78.010;2022-10-18T12:39:04;41.75;39.00;25.00
10689;PMS5003;5394;27.222;78.010;2022-10-18T12:41:43;45.00;40.25;26.00
10689;PMS5003;5394;27.222;78.010;2022-10-18T12:44:18;52.75;41.75;27.75
10689;PMS5003;5394;27.222;78.010;2022-10-18T12:46:56;51.25;44.00;28.25
10689;PMS5003;5394;27.222;78.010;2022-10-18T12:49:31;51.50;44.00;29.00
10689;PMS5003;5394;27.222;78.010;2022-10-18T12:52:18;40.25;37.50;26.50
10689;PMS5003;5394;27.222;78.010;2022-10-18T12:55:04;50.50;44.50;27.50
10689;PMS5003;5394;27.222;78.010;2022-10-18T12:58:02;47.00;42.25;27.50
10689;PMS5003;5394;27.222;78.010;2022-10-18T13:00:59;57.00;47.50;30.50
10689;PMS5003;5394;27.222;78.010;2022-10-18T13:03:51;52.75;44.00;28.75
10689;PMS5003;5394;27.222;78.010;2022-10-18T13:06:24;52.00;46.75;30.50
10689;PMS5003;5394;27.222;78.010;2022-10-18T13:09:18;67.50;55.25;36.00
10689;PMS5003;5394;27.222;78.010;2022-10-18T13:11:51;46.50;39.75;28.00
10689;PMS5003;5394;27.222;78.010;2022-10-18T13:14:37;55.25;44.75;30.00
10689;PMS5003;5394;27.222;78.010;2022-10-18T13:17:48;70.75;58.75;39.00
10689;PMS5003;5394;27.222;78.010;2022-10-18T13:20:28;70.00;56.25;36.00
10689;PMS5003;5394;27.222;78.010;2022-10-18T13:23:10;73.00;57.75;37.75
10689;PMS5003;5394;27.222;78.010;2022-10-18T13:25:59;79.75;61.50;41.75
10689;PMS5003;5394;27.222;78.010;2022-10-18T13:28:41;77.75;63.25;42.00
10689;PMS5003;5394;27.222;78.010;2022-10-18T13:31:26;79.75;61.50;42.25
10689;PMS5003;5394;27.222;78.010;2022-10-18T13:34:23;85.50;66.25;42.00
10689;PMS5003;5394;27.222;78.010;2022-10-18T13:37:03;79.25;63.75;41.00
10689;PMS5003;5394;27.222;78.010;2022-10-18T13:39:36;81.75;64.25;44.75
10689;PMS5003;5394;27.222;78.010;2022-10-18T13:54:31;81.25;64.00;41.75
10689;PMS5003;5394;27.222;78.010;2022-10-18T13:57:24;306.20;285.40;194.60
10689;PMS5003;5394;27.222;78.010;2022-10-18T14:00:16;622.20;568.60;310.00
10689;PMS5003;5394;27.222;78.010;2022-10-18T14:03:18;1178.00;1016.80;357.20
10689;PMS5003;5394;27.222;78.010;2022-10-18T14:06:26;1272.00;1059.60;351.20
10689;PMS5003;5394;27.222;78.010;2022-10-18T14:09:05;1045.40;907.80;368.00
10689;PMS5003;5394;27.222;78.010;2022-10-18T14:12:02;1124.00;962.00;355.83
10689;PMS5003;5394;27.222;78.010;2022-10-18T14:14:45;949.17;828.33;360.33
10689;PMS5003;5394;27.222;78.010;2022-10-18T14:17:26;975.60;830.20;364.40
10689;PMS5003;5394;27.222;78.010;2022-10-18T14:20:10;776.60;690.80;345.60
10689;PMS5003;5394;27.222;78.010;2022-10-18T14:22:56;607.00;551.50;312.67
10689;PMS5003;5394;27.222;78.010;2022-10-18T14:25:35;519.50;477.75;281.25
10689;PMS5003;5394;27.222;78.010;2022-10-18T14:28:12;407.00;383.80;250.60
10689;PMS5003;5394;27.222;78.010;2022-10-18T14:30:53;338.25;311.50;205.75
10689;PMS5003;5394;27.222;78.010;2022-10-18T14:33:30;283.25;274.75;184.25
10689;PMS5003;5394;27.222;78.010;2022-10-18T14:36:07;245.50;229.00;155.00
10689;PMS5003;5394;27.222;78.010;2022-10-18T14:38:44;179.25;170.00;121.75
10689;PMS5003;5394;27.222;78.010;2022-10-18T14:41:20;175.00;160.75;108.75
10689;PMS5003;5394;27.222;78.010;2022-10-18T14:44:08;139.40;133.40;99.80
10689;PMS5003;5394;27.222;78.010;2022-10-18T14:46:48;161.00;150.40;106.20
10689;PMS5003;5394;27.222;78.010;2022-10-18T14:49:22;117.20;106.40;75.40
10689;PMS5003;5394;27.222;78.010;2022-10-18T14:51:54;151.40;146.40;99.60
10689;PMS5003;5394;27.222;78.010;2022-10-18T14:54:29;155.00;142.60;104.40
10689;PMS5003;5394;27.222;78.010;2022-10-18T14:57:03;215.50;209.50;168.00
10689;PMS5003;5394;27.222;78.010;2022-10-18T14:59:40;132.75;125.25;89.50
10689;PMS5003;5394;27.222;78.010;2022-10-18T15:02:15;186.00;172.25;123.75
10689;PMS5003;5394;27.222;78.010;2022-10-18T15:04:55;111.00;103.40;68.80
10689;PMS5003;5394;27.222;78.010;2022-10-18T15:07:29;125.00;115.80;79.80
10689;PMS5003;5394;27.222;78.010;2022-10-18T15:10:03;99.60;87.00;60.80
10689;PMS5003;5394;27.222;78.010;2022-10-18T15:12:38;110.00;102.00;67.40
10689;PMS5003;5394;27.222;78.010;2022-10-18T15:15:33;116.40;104.00;72.40
10689;PMS5003;5394;27.222;78.010;2022-10-18T15:18:05;149.40;146.20;112.60
10689;PMS5003;5394;27.222;78.010;2022-10-18T15:20:46;104.60;92.40;63.80
10689;PMS5003;5394;27.222;78.010;2022-10-18T15:23:38;105.20;91.20;61.60
10689;PMS5003;5394;27.222;78.010;2022-10-18T15:26:10;95.20;76.60;58.20
10689;PMS5003;5394;27.222;78.010;2022-10-18T15:28:46;116.20;106.40;78.20
10689;PMS5003;5394;27.222;78.010;2022-10-18T15:31:39;117.80;109.80;68.20
10689;PMS5003;5394;27.222;78.010;2022-10-18T15:34:14;101.60;91.80;64.20
10689;PMS5003;5394;27.222;78.010;2022-10-18T15:36:50;123.80;115.80;81.00
10689;PMS5003;5394;27.222;78.010;2022-10-18T15:39:23;150.60;137.00;92.80
10689;PMS5003;5394;27.222;78.010;2022-10-18T15:41:59;164.00;154.25;107.50
10689;PMS5003;5394;27.222;78.010;2022-10-18T15:44:32;136.80;124.80;84.00
10689;PMS5003;5394;27.222;78.010;2022-10-18T15:47:18;167.25;153.00;117.25
10689;PMS5003;5394;27.222;78.010;2022-10-18T15:49:52;156.80;142.20;90.00
10689;PMS5003;5394;27.222;78.010;2022-10-18T15:52:34;158.20;144.80;99.40
10689;PMS5003;5394;27.222;78.010;2022-10-18T15:58:19;170.00;152.60;108.00
10689;PMS5003;5394;27.222;78.010;2022-10-18T16:00:55;163.50;153.00;107.50
10689;PMS5003;5394;27.222;78.010;2022-10-18T16:03:33;169.40;152.00;101.40
10689;PMS5003;5394;27.222;78.010;2022-10-18T16:06:08;158.50;142.00;102.50
10689;PMS5003;5394;27.222;78.010;2022-10-18T16:08:45;188.75;171.75;116.75
10689;PMS5003;5394;27.222;78.010;2022-10-18T16:11:18;245.50;224.00;185.75
10689;PMS5003;5394;27.222;78.010;2022-10-18T16:13:52;204.40;181.60;147.80
10689;PMS5003;5394;27.222;78.010;2022-10-18T16:16:27;147.75;136.00;89.75
10689;PMS5003;5394;27.222;78.010;2022-10-18T16:19:02;220.75;198.75;154.00
10689;PMS5003;5394;27.222;78.010;2022-10-18T16:21:37;202.00;182.50;110.75
10689;PMS5003;5394;27.222;78.010;2022-10-18T16:24:10;165.75;151.00;103.25
10689;PMS5003;5394;27.222;78.010;2022-10-18T16:26:43;273.75;252.25;186.75
10689;PMS5003;5394;27.222;78.010;2022-10-18T16:29:17;253.40;239.20;191.60
10689;PMS5003;5394;27.222;78.010;2022-10-18T16:31:52;208.50;196.25;146.75
10689;PMS5003;5394;27.222;78.010;2022-10-18T16:34:28;292.25;274.25;213.00
10689;PMS5003;5394;27.222;78.010;2022-10-18T16:37:00;254.40;239.80;198.20
10689;PMS5003;5394;27.222;78.010;2022-10-18T16:39:32;212.75;198.00;163.75
10689;PMS5003;5394;27.222;78.010;2022-10-18T16:42:05;230.20;214.00;165.60
10689;PMS5003;5394;27.222;78.010;2022-10-18T16:44:38;215.25;193.00;155.00
10689;PMS5003;5394;27.222;78.010;2022-10-18T16:47:10;196.50;174.50;138.75
10689;PMS5003;5394;27.222;78.010;2022-10-18T16:49:44;198.00;177.80;139.60
10689;PMS5003;5394;27.222;78.010;2022-10-18T16:52:17;205.00;185.00;147.50
10689;PMS5003;5394;27.222;78.010;2022-10-18T16:54:50;266.75;252.50;207.25
10689;PMS5003;5394;27.222;78.010;2022-10-18T16:57:22;233.00;218.00;180.75
10689;PMS5003;5394;27.222;78.010;2022-10-18T16:59:54;197.50;176.00;136.75
10689;PMS5003;5394;27.222;78.010;2022-10-18T17:02:26;168.25;143.25;112.50
10689;PMS5003;5394;27.222;78.010;2022-10-18T17:05:01;230.00;212.00;170.00
10689;PMS5003;5394;27.222;78.010;2022-10-18T17:07:33;176.50;147.00;94.25
10689;PMS5003;5394;27.222;78.010;2022-10-18T17:10:06;193.50;178.25;143.00
10689;PMS5003;5394;27.222;78.010;2022-10-18T17:12:38;288.50;276.50;233.75
10689;PMS5003;5394;27.222;78.010;2022-10-18T17:15:11;230.25;215.25;158.00
10689;PMS5003;5394;27.222;78.010;2022-10-18T17:17:43;155.00;143.60;87.00
10689;PMS5003;5394;27.222;78.010;2022-10-18T17:20:20;187.25;156.50;103.00
10689;PMS5003;5394;27.222;78.010;2022-10-18T17:22:54;179.00;158.00;100.50
10689;PMS5003;5394;27.222;78.010;2022-10-18T17:25:26;266.80;241.80;180.00
10689;PMS5003;5394;27.222;78.010;2022-10-18T17:28:02;220.00;204.00;148.67
10689;PMS5003;5394;27.222;78.010;2022-10-18T17:30:36;285.25;268.00;167.25
10689;PMS5003;5394;27.222;78.010;2022-10-18T17:33:08;252.60;233.20;184.20
10689;PMS5003;5394;27.222;78.010;2022-10-18T17:35:43;297.80;277.80;207.20
10689;PMS5003;5394;27.222;78.010;2022-10-18T17:38:15;329.50;310.25;203.00
10689;PMS5003;5394;27.222;78.010;2022-10-18T17:40:49;311.80;289.80;185.00
10689;PMS5003;5394;27.222;78.010;2022-10-18T17:43:21;307.40;286.60;244.80
10689;PMS5003;5394;27.222;78.010;2022-10-18T17:45:54;334.80;312.60;226.80
10689;PMS5003;5394;27.222;78.010;2022-10-18T17:48:26;229.80;214.80;155.40
10689;PMS5003;5394;27.222;78.010;2022-10-18T17:51:04;319.25;287.50;136.75
10689;PMS5003;5394;27.222;78.010;2022-10-18T17:53:37;369.25;352.75;139.50
10689;PMS5003;5394;27.222;78.010;2022-10-18T17:56:10;295.75;275.00;162.50
10689;PMS5003;5394;27.222;78.010;2022-10-18T17:58:42;307.50;286.00;132.00
10689;PMS5003;5394;27.222;78.010;2022-10-18T18:01:15;197.75;186.75;149.00
10689;PMS5003;5394;27.222;78.010;2022-10-18T18:03:49;204.75;180.25;140.25
10689;PMS5003;5394;27.222;78.010;2022-10-18T18:06:28;191.00;170.33;108.00
10689;PMS5003;5394;27.222;78.010;2022-10-18T18:09:03;299.40;272.80;210.00
10689;PMS5003;5394;27.222;78.010;2022-10-18T18:11:37;274.40;272.00;221.80
10689;PMS5003;5394;27.222;78.010;2022-10-18T18:14:11;258.00;236.50;197.75
10689;PMS5003;5394;27.222;78.010;2022-10-18T18:16:44;202.50;182.75;123.25
10689;PMS5003;5394;27.222;78.010;2022-10-18T18:19:16;233.00;214.75;151.25
10689;PMS5003;5394;27.222;78.010;2022-10-18T18:21:50;302.60;288.20;163.60
10689;PMS5003;5394;27.222;78.010;2022-10-18T18:24:23;234.00;217.00;136.33
10689;PMS5003;5394;27.222;78.010;2022-10-18T18:26:55;202.25;185.50;124.75
10689;PMS5003;5394;27.222;78.010;2022-10-18T18:29:27;208.25;182.75;121.25
10689;PMS5003;5394;27.222;78.010;2022-10-18T18:32:00;207.50;196.00;132.50
10689;PMS5003;5394;27.222;78.010;2022-10-18T18:34:32;201.75;165.75;112.00
10689;PMS5003;5394;27.222;78.010;2022-10-18T18:37:06;194.00;176.00;117.00
10689;PMS5003;5394;27.222;78.010;2022-10-18T18:39:39;223.60;194.60;140.00
10689;PMS5003;5394;27.222;78.010;2022-10-18T18:42:11;213.25;190.25;124.75
10689;PMS5003;5394;27.222;78.010;2022-10-18T18:44:43;222.50;193.25;146.00
10689;PMS5003;5394;27.222;78.010;2022-10-18T18:47:17;214.50;199.50;137.50
10689;PMS5003;5394;27.222;78.010;2022-10-18T18:49:51;224.00;196.50;145.00
10689;PMS5003;5394;27.222;78.010;2022-10-18T18:52:24;205.50;183.25;117.50
10689;PMS5003;5394;27.222;78.010;2022-10-18T18:54:57;184.33;172.33;112.33
10689;PMS5003;5394;27.222;78.010;2022-10-18T18:57:29;213.67;186.33;117.33
10689;PMS5003;5394;27.222;78.010;2022-10-18T19:00:02;208.25;183.00;112.25
10689;PMS5003;5394;27.222;78.010;2022-10-18T19:02:37;228.67;202.00;130.00
10689;PMS5003;5394;27.222;78.010;2022-10-18T19:05:09;214.50;183.00;122.00
10689;PMS5003;5394;27.222;78.010;2022-10-18T19:07:43;195.33;168.00;105.33
10689;PMS5003;5394;27.222;78.010;2022-10-18T19:10:15;198.33;180.00;112.33
10689;PMS5003;5394;27.222;78.010;2022-10-18T19:12:47;213.50;185.75;118.00
10689;PMS5003;5394;27.222;78.010;2022-10-18T19:15:19;213.67;187.00;112.67
10689;PMS5003;5394;27.222;78.010;2022-10-18T19:17:54;193.67;177.33;112.33
10689;PMS5003;5394;27.222;78.010;2022-10-18T19:20:26;205.67;177.00;110.00
10689;PMS5003;5394;27.222;78.010;2022-10-18T19:23:00;227.50;206.50;153.25
10689;PMS5003;5394;27.222;78.010;2022-10-18T19:25:32;226.25;212.50;153.50
10689;PMS5003;5394;27.222;78.010;2022-10-18T19:28:04;219.00;186.00;125.50
10689;PMS5003;5394;27.222;78.010;2022-10-18T19:30:36;299.33;269.33;203.00
10689;PMS5003;5394;27.222;78.010;2022-10-18T19:33:12;270.25;246.00;190.25
10689;PMS5003;5394;27.222;78.010;2022-10-18T19:36:09;229.25;202.50;159.25
10689;PMS5003;5394;27.222;78.010;2022-10-18T19:38:43;280.75;260.75;199.25
10689;PMS5003;5394;27.222;78.010;2022-10-18T19:41:15;205.33;174.00;112.00
10689;PMS5003;5394;27.222;78.010;2022-10-18T19:43:47;238.00;216.50;166.00
10689;PMS5003;5394;27.222;78.010;2022-10-18T19:46:20;218.00;202.00;152.50
10689;PMS5003;5394;27.222;78.010;2022-10-18T19:48:52;197.67;183.00;120.67
10689;PMS5003;5394;27.222;78.010;2022-10-18T19:51:24;222.25;198.25;134.25
10689;PMS5003;5394;27.222;78.010;2022-10-18T19:53:57;199.33;180.33;118.33
10689;PMS5003;5394;27.222;78.010;2022-10-18T19:56:29;199.25;176.75;108.75
10689;PMS5003;5394;27.222;78.010;2022-10-18T19:59:01;175.00;154.25;101.25
10689;PMS5003;5394;27.222;78.010;2022-10-18T20:01:33;200.25;179.75;114.00
10689;PMS5003;5394;27.222;78.010;2022-10-18T20:04:07;188.25;167.00;108.50
10689;PMS5003;5394;27.222;78.010;2022-10-18T20:06:40;176.75;156.00;94.50
10689;PMS5003;5394;27.222;78.010;2022-10-18T20:09:14;197.75;171.00;103.25
10689;PMS5003;5394;27.222;78.010;2022-10-18T20:11:47;189.25;166.25;106.25
10689;PMS5003;5394;27.222;78.010;2022-10-18T20:14:19;231.00;206.00;153.75
10689;PMS5003;5394;27.222;78.010;2022-10-18T20:16:51;247.75;217.75;156.50
10689;PMS5003;5394;27.222;78.010;2022-10-18T20:19:23;228.75;208.75;165.25
10689;PMS5003;5394;27.222;78.010;2022-10-18T20:21:55;234.75;221.50;181.50
10689;PMS5003;5394;27.222;78.010;2022-10-18T20:24:29;157.75;146.00;105.25
10689;PMS5003;5394;27.222;78.010;2022-10-18T20:27:01;158.00;138.00;94.50
10689;PMS5003;5394;27.222;78.010;2022-10-18T20:29:33;160.50;151.00;105.75
10689;PMS5003;5394;27.222;78.010;2022-10-18T20:32:05;200.50;182.25;147.50
10689;PMS5003;5394;27.222;78.010;2022-10-18T20:34:38;203.25;189.50;141.75
10689;PMS5003;5394;27.222;78.010;2022-10-18T20:37:10;139.40;119.80;72.20
10689;PMS5003;5394;27.222;78.010;2022-10-18T20:39:44;148.00;133.80;82.00
10689;PMS5003;5394;27.222;78.010;2022-10-18T20:42:16;148.40;127.40;77.60
10689;PMS5003;5394;27.222;78.010;2022-10-18T20:44:49;155.80;136.60;88.40
10689;PMS5003;5394;27.222;78.010;2022-10-18T20:47:21;145.00;127.20;81.60
10689;PMS5003;5394;27.222;78.010;2022-10-18T20:49:53;158.00;135.50;92.25
10689;PMS5003;5394;27.222;78.010;2022-10-18T20:52:25;144.40;128.80;81.20
10689;PMS5003;5394;27.222;78.010;2022-10-18T20:54:59;216.67;200.67;152.67
10689;PMS5003;5394;27.222;78.010;2022-10-18T20:57:31;235.25;220.50;191.00
10689;PMS5003;5394;27.222;78.010;2022-10-18T21:00:04;138.80;128.80;98.60
10689;PMS5003;5394;27.222;78.010;2022-10-18T21:02:38;200.25;189.00;145.00
10689;PMS5003;5394;27.222;78.010;2022-10-18T21:05:10;182.75;167.75;108.75
10689;PMS5003;5394;27.222;78.010;2022-10-18T21:07:42;139.00;132.75;83.25
10689;PMS5003;5394;27.222;78.010;2022-10-18T21:10:16;151.00;136.25;87.00
10689;PMS5003;5394;27.222;78.010;2022-10-18T21:12:48;194.00;175.00;133.75
10689;PMS5003;5394;27.222;78.010;2022-10-18T21:15:20;163.00;157.00;126.00
10689;PMS5003;5394;27.222;78.010;2022-10-18T21:17:52;149.00;132.80;84.00
10689;PMS5003;5394;27.222;78.010;2022-10-18T21:20:24;147.20;137.00;88.00
10689;PMS5003;5394;27.222;78.010;2022-10-18T21:22:55;266.00;248.25;205.25
10689;PMS5003;5394;27.222;78.010;2022-10-18T21:25:28;310.75;299.00;209.00
10689;PMS5003;5394;27.222;78.010;2022-10-18T21:28:00;193.00;180.20;119.00
10689;PMS5003;5394;27.222;78.010;2022-10-18T21:30:32;336.20;325.60;143.40
10689;PMS5003;5394;27.222;78.010;2022-10-18T21:33:04;418.67;409.67;96.67
10689;PMS5003;5394;27.222;78.010;2022-10-18T21:35:37;435.75;409.50;110.75